Main page
METAR-TAF:

METAR-TAF

Airports :

London City Airport

London, England

latitude: 51-30N, longitude: 000-03E, elevation: 5 m

Current weather observation

The report was made 23 minutes ago, at 05:20 UTC
Wind 13 kt from the West
Temperature 16°C
Humidity 77%
Pressure 1015 hPa
Visibility 10 km or more
Scattered clouds at a height of 1800 ft

METAR: EGLC 170520Z AUTO 27013KT 9999 SCT018 16/12 Q1015

Time: 06:43 (05:43 UTC)

Forecast

The report was made 47 minutes ago, at 04:56 UTC
Forecast valid from 17 at 06 UTC to 17 at 15 UTC
Wind 8 kt from the West
Visibility 10 km or more
Few clouds at a height of 4500 ft

TAF: EGLC 170456Z 1706/1715 26008KT 9999 FEW045

Weather observations and forecasts of more than 4000 airports (METAR and TAF reports).

The available stations are represented by yellow and red dots on the map.

Hover mouse over dot to see the name of the station.

Then click to see weather observations and forecasts.

To change the map : click on the green buttons with a black cross to zoom in, on the green button with a dash to zoom out, or on the green arrows for adjacent maps.


METAR-TAF: